sensor_id;sensor_type;location;lat;lon;timestamp;temperature;humidity
32753;DHT22;19121;52.428;10.816;2023-12-07T00:00:15;19.00;40.20
32753;DHT22;19121;52.428;10.816;2023-12-07T00:02:41;19.00;40.20
32753;DHT22;19121;52.428;10.816;2023-12-07T00:05:07;19.00;40.20
32753;DHT22;19121;52.428;10.816;2023-12-07T00:07:33;19.00;40.20
32753;DHT22;19121;52.428;10.816;2023-12-07T00:09:59;19.00;40.20
32753;DHT22;19121;52.428;10.816;2023-12-07T00:12:24;19.00;40.20
32753;DHT22;19121;52.428;10.816;2023-12-07T00:14:51;19.00;40.20
32753;DHT22;19121;52.428;10.816;2023-12-07T00:17:17;19.00;40.30
32753;DHT22;19121;52.428;10.816;2023-12-07T00:19:42;19.00;40.90
32753;DHT22;19121;52.428;10.816;2023-12-07T00:22:08;19.00;40.30
32753;DHT22;19121;52.428;10.816;2023-12-07T00:24:33;19.00;40.30
32753;DHT22;19121;52.428;10.816;2023-12-07T00:26:59;19.00;40.20
32753;DHT22;19121;52.428;10.816;2023-12-07T00:29:24;19.00;40.20
32753;DHT22;19121;52.428;10.816;2023-12-07T00:31:50;19.00;40.20
32753;DHT22;19121;52.428;10.816;2023-12-07T00:34:17;19.00;40.30
32753;DHT22;19121;52.428;10.816;2023-12-07T00:36:42;19.00;40.30
32753;DHT22;19121;52.428;10.816;2023-12-07T00:39:08;19.00;40.30
32753;DHT22;19121;52.428;10.816;2023-12-07T00:41:34;18.90;40.20
32753;DHT22;19121;52.428;10.816;2023-12-07T00:43:59;19.00;40.30
32753;DHT22;19121;52.428;10.816;2023-12-07T00:46:25;19.00;40.30
32753;DHT22;19121;52.428;10.816;2023-12-07T00:48:50;18.90;40.20
32753;DHT22;19121;52.428;10.816;2023-12-07T00:51:16;19.00;40.30
32753;DHT22;19121;52.428;10.816;2023-12-07T00:56:44;19.00;40.30
32753;DHT22;19121;52.428;10.816;2023-12-07T00:59:10;19.00;40.30
32753;DHT22;19121;52.428;10.816;2023-12-07T01:01:35;18.90;40.20
32753;DHT22;19121;52.428;10.816;2023-12-07T01:04:04;18.90;40.20
32753;DHT22;19121;52.428;10.816;2023-12-07T01:06:30;18.90;40.20
32753;DHT22;19121;52.428;10.816;2023-12-07T01:08:56;18.90;40.20
32753;DHT22;19121;52.428;10.816;2023-12-07T01:11:22;18.90;40.20
32753;DHT22;19121;52.428;10.816;2023-12-07T01:13:47;18.90;40.20
32753;DHT22;19121;52.428;10.816;2023-12-07T01:16:13;18.90;40.30
32753;DHT22;19121;52.428;10.816;2023-12-07T01:18:38;18.90;40.20
32753;DHT22;19121;52.428;10.816;2023-12-07T01:21:04;18.90;40.30
32753;DHT22;19121;52.428;10.816;2023-12-07T01:23:29;18.90;40.20
32753;DHT22;19121;52.428;10.816;2023-12-07T01:25:55;18.90;40.30
32753;DHT22;19121;52.428;10.816;2023-12-07T01:28:20;18.90;40.20
32753;DHT22;19121;52.428;10.816;2023-12-07T01:30:46;18.90;40.30
32753;DHT22;19121;52.428;10.816;2023-12-07T01:33:11;18.90;40.30
32753;DHT22;19121;52.428;10.816;2023-12-07T01:35:37;18.90;40.30
32753;DHT22;19121;52.428;10.816;2023-12-07T01:38:02;18.90;40.30
32753;DHT22;19121;52.428;10.816;2023-12-07T01:40:27;18.90;40.30
32753;DHT22;19121;52.428;10.816;2023-12-07T01:42:53;18.90;40.30
32753;DHT22;19121;52.428;10.816;2023-12-07T01:45:19;18.90;40.30
32753;DHT22;19121;52.428;10.816;2023-12-07T01:47:45;18.90;40.30
32753;DHT22;19121;52.428;10.816;2023-12-07T01:50:11;18.90;40.30
32753;DHT22;19121;52.428;10.816;2023-12-07T01:52:41;18.90;40.30
32753;DHT22;19121;52.428;10.816;2023-12-07T01:55:08;18.90;40.30
32753;DHT22;19121;52.428;10.816;2023-12-07T01:57:34;18.90;40.30
32753;DHT22;19121;52.428;10.816;2023-12-07T02:00:00;18.90;40.30
32753;DHT22;19121;52.428;10.816;2023-12-07T02:02:26;18.80;40.30
32753;DHT22;19121;52.428;10.816;2023-12-07T02:04:52;18.90;40.30
32753;DHT22;19121;52.428;10.816;2023-12-07T02:07:17;18.80;40.20
32753;DHT22;19121;52.428;10.816;2023-12-07T02:09:43;18.80;40.30
32753;DHT22;19121;52.428;10.816;2023-12-07T02:12:08;18.90;40.30
32753;DHT22;19121;52.428;10.816;2023-12-07T02:14:34;18.80;40.30
32753;DHT22;19121;52.428;10.816;2023-12-07T02:19:46;18.80;40.30
32753;DHT22;19121;52.428;10.816;2023-12-07T02:22:14;18.80;40.90
32753;DHT22;19121;52.428;10.816;2023-12-07T02:24:44;18.80;40.30
32753;DHT22;19121;52.428;10.816;2023-12-07T02:27:13;18.80;40.30
32753;DHT22;19121;52.428;10.816;2023-12-07T02:29:38;18.80;40.30
32753;DHT22;19121;52.428;10.816;2023-12-07T02:32:04;18.80;40.30
32753;DHT22;19121;52.428;10.816;2023-12-07T02:34:29;18.80;40.30
32753;DHT22;19121;52.428;10.816;2023-12-07T02:36:55;18.80;40.30
32753;DHT22;19121;52.428;10.816;2023-12-07T02:39:22;18.80;40.30
32753;DHT22;19121;52.428;10.816;2023-12-07T02:41:48;18.80;40.30
32753;DHT22;19121;52.428;10.816;2023-12-07T02:44:14;18.80;40.30
32753;DHT22;19121;52.428;10.816;2023-12-07T02:46:40;18.80;40.30
32753;DHT22;19121;52.428;10.816;2023-12-07T02:49:05;18.80;40.30
32753;DHT22;19121;52.428;10.816;2023-12-07T02:51:31;18.80;40.30
32753;DHT22;19121;52.428;10.816;2023-12-07T02:53:56;18.80;40.30
32753;DHT22;19121;52.428;10.816;2023-12-07T02:56:22;18.80;40.30
32753;DHT22;19121;52.428;10.816;2023-12-07T02:58:47;18.80;40.30
32753;DHT22;19121;52.428;10.816;2023-12-07T03:01:13;18.80;40.30
32753;DHT22;19121;52.428;10.816;2023-12-07T03:03:38;18.80;40.30
32753;DHT22;19121;52.428;10.816;2023-12-07T03:06:06;18.80;40.40
32753;DHT22;19121;52.428;10.816;2023-12-07T03:08:31;18.80;40.30
32753;DHT22;19121;52.428;10.816;2023-12-07T03:10:56;18.80;40.30
32753;DHT22;19121;52.428;10.816;2023-12-07T03:13:22;18.70;40.30
32753;DHT22;19121;52.428;10.816;2023-12-07T03:15:47;18.80;40.30
32753;DHT22;19121;52.428;10.816;2023-12-07T03:18:13;18.80;40.30
32753;DHT22;19121;52.428;10.816;2023-12-07T03:20:38;18.80;40.30
32753;DHT22;19121;52.428;10.816;2023-12-07T03:23:04;18.90;40.30
32753;DHT22;19121;52.428;10.816;2023-12-07T03:25:29;18.90;40.30
32753;DHT22;19121;52.428;10.816;2023-12-07T03:27:55;18.90;40.20
32753;DHT22;19121;52.428;10.816;2023-12-07T03:30:21;18.90;40.20
32753;DHT22;19121;52.428;10.816;2023-12-07T03:32:46;18.90;40.20
32753;DHT22;19121;52.428;10.816;2023-12-07T03:35:12;18.90;40.20
32753;DHT22;19121;52.428;10.816;2023-12-07T03:37:37;18.90;40.10
32753;DHT22;19121;52.428;10.816;2023-12-07T03:40:03;19.00;40.10
32753;DHT22;19121;52.428;10.816;2023-12-07T03:42:30;19.00;40.10
32753;DHT22;19121;52.428;10.816;2023-12-07T03:44:55;19.00;40.10
32753;DHT22;19121;52.428;10.816;2023-12-07T03:47:21;19.00;40.10
32753;DHT22;19121;52.428;10.816;2023-12-07T03:49:46;19.00;40.10
32753;DHT22;19121;52.428;10.816;2023-12-07T03:52:12;19.00;40.10
32753;DHT22;19121;52.428;10.816;2023-12-07T03:54:37;19.00;40.10
32753;DHT22;19121;52.428;10.816;2023-12-07T03:57:03;19.00;40.10
32753;DHT22;19121;52.428;10.816;2023-12-07T03:59:28;19.00;40.70
32753;DHT22;19121;52.428;10.816;2023-12-07T04:01:54;19.00;40.00
32753;DHT22;19121;52.428;10.816;2023-12-07T04:04:19;19.10;40.00
32753;DHT22;19121;52.428;10.816;2023-12-07T04:06:45;19.10;40.00
32753;DHT22;19121;52.428;10.816;2023-12-07T04:09:10;19.10;40.00
32753;DHT22;19121;52.428;10.816;2023-12-07T04:11:36;19.10;40.10
32753;DHT22;19121;52.428;10.816;2023-12-07T04:14:01;19.10;40.00
32753;DHT22;19121;52.428;10.816;2023-12-07T04:16:27;19.10;40.00
32753;DHT22;19121;52.428;10.816;2023-12-07T04:18:53;19.10;40.00
32753;DHT22;19121;52.428;10.816;2023-12-07T04:21:19;19.10;40.00
32753;DHT22;19121;52.428;10.816;2023-12-07T04:23:44;19.10;40.00
32753;DHT22;19121;52.428;10.816;2023-12-07T04:26:09;19.10;40.60
32753;DHT22;19121;52.428;10.816;2023-12-07T04:28:35;19.10;39.90
32753;DHT22;19121;52.428;10.816;2023-12-07T04:31:00;19.10;39.90
32753;DHT22;19121;52.428;10.816;2023-12-07T04:33:26;19.20;40.00
32753;DHT22;19121;52.428;10.816;2023-12-07T04:35:51;19.20;40.00
32753;DHT22;19121;52.428;10.816;2023-12-07T04:38:17;19.20;40.00
32753;DHT22;19121;52.428;10.816;2023-12-07T04:40:42;19.20;40.00
32753;DHT22;19121;52.428;10.816;2023-12-07T04:43:08;19.20;40.00
32753;DHT22;19121;52.428;10.816;2023-12-07T04:45:33;19.20;40.00
32753;DHT22;19121;52.428;10.816;2023-12-07T04:47:59;19.20;40.00
32753;DHT22;19121;52.428;10.816;2023-12-07T04:50:25;19.20;40.00
32753;DHT22;19121;52.428;10.816;2023-12-07T04:52:51;19.20;39.90
32753;DHT22;19121;52.428;10.816;2023-12-07T04:55:16;19.20;39.90
32753;DHT22;19121;52.428;10.816;2023-12-07T04:57:42;19.20;39.90
32753;DHT22;19121;52.428;10.816;2023-12-07T05:00:07;19.20;39.90
32753;DHT22;19121;52.428;10.816;2023-12-07T05:02:35;19.20;39.90
32753;DHT22;19121;52.428;10.816;2023-12-07T05:05:01;19.20;39.90
32753;DHT22;19121;52.428;10.816;2023-12-07T05:07:26;19.20;40.50
32753;DHT22;19121;52.428;10.816;2023-12-07T05:09:52;19.20;39.90
32753;DHT22;19121;52.428;10.816;2023-12-07T05:12:17;19.20;39.90
32753;DHT22;19121;52.428;10.816;2023-12-07T05:14:43;19.20;39.90
32753;DHT22;19121;52.428;10.816;2023-12-07T05:17:08;19.30;39.90
32753;DHT22;19121;52.428;10.816;2023-12-07T05:19:34;19.20;39.80
32753;DHT22;19121;52.428;10.816;2023-12-07T05:22:00;19.20;39.80
32753;DHT22;19121;52.428;10.816;2023-12-07T05:24:25;19.30;39.90
32753;DHT22;19121;52.428;10.816;2023-12-07T05:26:51;19.30;39.80
32753;DHT22;19121;52.428;10.816;2023-12-07T05:29:17;19.30;39.90
32753;DHT22;19121;52.428;10.816;2023-12-07T05:31:42;19.30;39.90
32753;DHT22;19121;52.428;10.816;2023-12-07T05:34:08;19.30;39.80
32753;DHT22;19121;52.428;10.816;2023-12-07T05:36:33;19.30;39.80
32753;DHT22;19121;52.428;10.816;2023-12-07T05:38:59;19.30;39.80
32753;DHT22;19121;52.428;10.816;2023-12-07T05:41:24;19.30;39.80
32753;DHT22;19121;52.428;10.816;2023-12-07T05:43:51;19.30;39.80
32753;DHT22;19121;52.428;10.816;2023-12-07T05:46:16;19.30;39.80
32753;DHT22;19121;52.428;10.816;2023-12-07T05:48:42;19.30;39.80
32753;DHT22;19121;52.428;10.816;2023-12-07T05:51:14;19.30;39.80
32753;DHT22;19121;52.428;10.816;2023-12-07T05:53:43;19.30;39.80
32753;DHT22;19121;52.428;10.816;2023-12-07T05:56:09;19.30;39.80
32753;DHT22;19121;52.428;10.816;2023-12-07T05:58:34;19.30;39.80
32753;DHT22;19121;52.428;10.816;2023-12-07T06:01:00;19.40;39.80
32753;DHT22;19121;52.428;10.816;2023-12-07T06:03:27;19.40;39.80
32753;DHT22;19121;52.428;10.816;2023-12-07T06:05:52;19.30;39.80
32753;DHT22;19121;52.428;10.816;2023-12-07T06:08:18;19.30;39.80
32753;DHT22;19121;52.428;10.816;2023-12-07T06:10:43;19.40;39.80
32753;DHT22;19121;52.428;10.816;2023-12-07T06:13:09;19.40;39.80
32753;DHT22;19121;52.428;10.816;2023-12-07T06:15:35;19.40;39.80
32753;DHT22;19121;52.428;10.816;2023-12-07T06:18:01;19.40;39.80
32753;DHT22;19121;52.428;10.816;2023-12-07T06:20:26;19.40;39.80
32753;DHT22;19121;52.428;10.816;2023-12-07T06:22:52;19.40;39.80
32753;DHT22;19121;52.428;10.816;2023-12-07T06:25:17;19.40;39.80
32753;DHT22;19121;52.428;10.816;2023-12-07T06:27:43;19.40;39.70
32753;DHT22;19121;52.428;10.816;2023-12-07T06:30:09;19.40;39.70
32753;DHT22;19121;52.428;10.816;2023-12-07T06:32:36;19.40;39.70
32753;DHT22;19121;52.428;10.816;2023-12-07T06:35:02;19.40;39.70
32753;DHT22;19121;52.428;10.816;2023-12-07T06:37:29;19.40;39.70
32753;DHT22;19121;52.428;10.816;2023-12-07T06:39:55;19.40;39.70
32753;DHT22;19121;52.428;10.816;2023-12-07T06:42:20;19.40;39.80
32753;DHT22;19121;52.428;10.816;2023-12-07T06:44:46;19.40;39.80
32753;DHT22;19121;52.428;10.816;2023-12-07T06:47:12;19.40;39.90
32753;DHT22;19121;52.428;10.816;2023-12-07T06:49:38;19.40;39.90
32753;DHT22;19121;52.428;10.816;2023-12-07T06:52:03;19.40;40.00
32753;DHT22;19121;52.428;10.816;2023-12-07T06:54:29;19.40;40.10
32753;DHT22;19121;52.428;10.816;2023-12-07T06:56:54;19.40;40.20
32753;DHT22;19121;52.428;10.816;2023-12-07T06:59:20;19.40;40.30
32753;DHT22;19121;52.428;10.816;2023-12-07T07:01:45;19.40;40.40
32753;DHT22;19121;52.428;10.816;2023-12-07T07:04:11;19.40;40.40
32753;DHT22;19121;52.428;10.816;2023-12-07T07:06:36;19.50;40.40
32753;DHT22;19121;52.428;10.816;2023-12-07T07:09:02;19.50;41.10
32753;DHT22;19121;52.428;10.816;2023-12-07T07:11:30;19.50;40.60
32753;DHT22;19121;52.428;10.816;2023-12-07T07:13:55;19.50;40.60
32753;DHT22;19121;52.428;10.816;2023-12-07T07:16:21;19.50;40.60
32753;DHT22;19121;52.428;10.816;2023-12-07T07:18:46;19.50;40.70
32753;DHT22;19121;52.428;10.816;2023-12-07T07:21:12;19.50;40.70
32753;DHT22;19121;52.428;10.816;2023-12-07T07:23:37;19.50;40.70
32753;DHT22;19121;52.428;10.816;2023-12-07T07:26:03;19.50;40.70
32753;DHT22;19121;52.428;10.816;2023-12-07T07:28:28;19.50;40.80
32753;DHT22;19121;52.428;10.816;2023-12-07T07:30:54;19.50;40.70
32753;DHT22;19121;52.428;10.816;2023-12-07T07:33:19;19.50;40.70
32753;DHT22;19121;52.428;10.816;2023-12-07T07:35:45;19.50;40.80
32753;DHT22;19121;52.428;10.816;2023-12-07T07:38:10;19.60;40.80
32753;DHT22;19121;52.428;10.816;2023-12-07T07:40:36;19.60;40.80
32753;DHT22;19121;52.428;10.816;2023-12-07T07:43:02;19.60;40.90
32753;DHT22;19121;52.428;10.816;2023-12-07T07:45:27;19.60;41.00
32753;DHT22;19121;52.428;10.816;2023-12-07T07:47:53;19.60;41.00
32753;DHT22;19121;52.428;10.816;2023-12-07T07:50:19;19.60;41.20
32753;DHT22;19121;52.428;10.816;2023-12-07T07:52:44;19.70;41.30
32753;DHT22;19121;52.428;10.816;2023-12-07T07:55:10;19.60;41.20
32753;DHT22;19121;52.428;10.816;2023-12-07T07:57:37;19.60;41.30
32753;DHT22;19121;52.428;10.816;2023-12-07T08:00:02;19.60;41.30
32753;DHT22;19121;52.428;10.816;2023-12-07T08:02:30;19.70;41.40
32753;DHT22;19121;52.428;10.816;2023-12-07T08:04:56;19.70;41.50
32753;DHT22;19121;52.428;10.816;2023-12-07T08:07:21;19.70;41.50
32753;DHT22;19121;52.428;10.816;2023-12-07T08:09:47;19.70;41.60
32753;DHT22;19121;52.428;10.816;2023-12-07T08:12:12;19.70;41.60
32753;DHT22;19121;52.428;10.816;2023-12-07T08:14:38;19.70;41.60
32753;DHT22;19121;52.428;10.816;2023-12-07T08:17:03;19.70;41.60
32753;DHT22;19121;52.428;10.816;2023-12-07T08:19:29;19.70;41.70
32753;DHT22;19121;52.428;10.816;2023-12-07T08:21:54;19.70;41.70
32753;DHT22;19121;52.428;10.816;2023-12-07T08:24:20;19.70;41.70
32753;DHT22;19121;52.428;10.816;2023-12-07T08:26:45;19.70;41.60
32753;DHT22;19121;52.428;10.816;2023-12-07T08:29:11;19.70;41.60
32753;DHT22;19121;52.428;10.816;2023-12-07T08:31:36;19.80;42.30
32753;DHT22;19121;52.428;10.816;2023-12-07T08:34:02;19.70;41.60
32753;DHT22;19121;52.428;10.816;2023-12-07T08:36:28;19.80;41.70
32753;DHT22;19121;52.428;10.816;2023-12-07T08:38:54;19.80;41.70
32753;DHT22;19121;52.428;10.816;2023-12-07T08:41:20;19.80;41.70
32753;DHT22;19121;52.428;10.816;2023-12-07T08:43:45;19.80;41.70
32753;DHT22;19121;52.428;10.816;2023-12-07T08:46:11;19.80;41.70
32753;DHT22;19121;52.428;10.816;2023-12-07T08:48:36;19.80;41.70
32753;DHT22;19121;52.428;10.816;2023-12-07T08:51:03;19.80;41.70
32753;DHT22;19121;52.428;10.816;2023-12-07T08:53:28;19.80;41.70
32753;DHT22;19121;52.428;10.816;2023-12-07T08:55:54;19.90;41.70
32753;DHT22;19121;52.428;10.816;2023-12-07T08:58:20;19.80;41.70
32753;DHT22;19121;52.428;10.816;2023-12-07T09:00:46;19.90;41.70
32753;DHT22;19121;52.428;10.816;2023-12-07T09:03:11;19.90;41.70
32753;DHT22;19121;52.428;10.816;2023-12-07T09:05:37;19.90;41.70
32753;DHT22;19121;52.428;10.816;2023-12-07T09:08:02;19.90;41.60
32753;DHT22;19121;52.428;10.816;2023-12-07T09:10:28;19.90;41.60
32753;DHT22;19121;52.428;10.816;2023-12-07T09:12:53;19.90;41.60
32753;DHT22;19121;52.428;10.816;2023-12-07T09:15:19;19.90;41.60
32753;DHT22;19121;52.428;10.816;2023-12-07T09:17:45;19.90;41.70
32753;DHT22;19121;52.428;10.816;2023-12-07T09:20:10;19.90;41.60
32753;DHT22;19121;52.428;10.816;2023-12-07T09:22:40;19.90;41.60
32753;DHT22;19121;52.428;10.816;2023-12-07T09:25:06;19.90;41.60
32753;DHT22;19121;52.428;10.816;2023-12-07T09:27:33;19.90;41.60
32753;DHT22;19121;52.428;10.816;2023-12-07T09:29:58;20.00;41.70
32753;DHT22;19121;52.428;10.816;2023-12-07T09:32:24;20.00;41.70
32753;DHT22;19121;52.428;10.816;2023-12-07T09:34:49;20.00;41.70
32753;DHT22;19121;52.428;10.816;2023-12-07T09:37:16;20.00;41.70
32753;DHT22;19121;52.428;10.816;2023-12-07T09:39:41;20.00;41.70
32753;DHT22;19121;52.428;10.816;2023-12-07T09:42:07;20.00;41.70
32753;DHT22;19121;52.428;10.816;2023-12-07T09:44:33;20.00;41.70
32753;DHT22;19121;52.428;10.816;2023-12-07T09:46:59;20.00;41.60
32753;DHT22;19121;52.428;10.816;2023-12-07T09:49:24;20.00;41.60
32753;DHT22;19121;52.428;10.816;2023-12-07T09:51:50;20.00;41.50
32753;DHT22;19121;52.428;10.816;2023-12-07T09:54:16;20.00;41.40
32753;DHT22;19121;52.428;10.816;2023-12-07T09:56:42;20.00;41.40
32753;DHT22;19121;52.428;10.816;2023-12-07T09:59:08;20.00;41.50
32753;DHT22;19121;52.428;10.816;2023-12-07T10:01:34;20.00;41.50
32753;DHT22;19121;52.428;10.816;2023-12-07T10:06:42;20.00;41.50
32753;DHT22;19121;52.428;10.816;2023-12-07T10:09:07;20.10;41.50
32753;DHT22;19121;52.428;10.816;2023-12-07T10:11:33;20.00;41.40
32753;DHT22;19121;52.428;10.816;2023-12-07T10:13:58;20.00;41.40
32753;DHT22;19121;52.428;10.816;2023-12-07T10:16:24;20.10;41.40
32753;DHT22;19121;52.428;10.816;2023-12-07T10:18:49;20.00;41.40
32753;DHT22;19121;52.428;10.816;2023-12-07T10:21:15;20.10;42.00
32753;DHT22;19121;52.428;10.816;2023-12-07T10:23:41;20.00;41.40
32753;DHT22;19121;52.428;10.816;2023-12-07T10:26:08;20.00;41.40
32753;DHT22;19121;52.428;10.816;2023-12-07T10:28:35;20.10;41.40
32753;DHT22;19121;52.428;10.816;2023-12-07T10:31:04;20.00;41.30
32753;DHT22;19121;52.428;10.816;2023-12-07T10:33:33;20.00;41.40
32753;DHT22;19121;52.428;10.816;2023-12-07T10:35:58;20.10;41.40
32753;DHT22;19121;52.428;10.816;2023-12-07T10:38:24;20.10;41.40
32753;DHT22;19121;52.428;10.816;2023-12-07T10:40:50;20.10;41.50
32753;DHT22;19121;52.428;10.816;2023-12-07T10:43:22;20.10;41.50
32753;DHT22;19121;52.428;10.816;2023-12-07T10:45:47;20.10;41.50
32753;DHT22;19121;52.428;10.816;2023-12-07T10:48:13;20.10;41.50
32753;DHT22;19121;52.428;10.816;2023-12-07T10:50:43;20.10;41.50
32753;DHT22;19121;52.428;10.816;2023-12-07T10:53:33;20.10;41.50
32753;DHT22;19121;52.428;10.816;2023-12-07T10:55:57;20.10;41.50
32753;DHT22;19121;52.428;10.816;2023-12-07T10:58:24;20.10;41.40
32753;DHT22;19121;52.428;10.816;2023-12-07T11:00:54;20.10;41.40
32753;DHT22;19121;52.428;10.816;2023-12-07T11:03:20;20.10;41.40
32753;DHT22;19121;52.428;10.816;2023-12-07T11:05:49;20.10;41.40
32753;DHT22;19121;52.428;10.816;2023-12-07T11:13:18;20.10;41.40
32753;DHT22;19121;52.428;10.816;2023-12-07T11:15:45;20.10;41.40
32753;DHT22;19121;52.428;10.816;2023-12-07T11:18:11;20.20;41.50
32753;DHT22;19121;52.428;10.816;2023-12-07T11:23:05;20.20;41.50
32753;DHT22;19121;52.428;10.816;2023-12-07T11:25:30;20.20;41.50
32753;DHT22;19121;52.428;10.816;2023-12-07T11:28:05;20.20;41.40
32753;DHT22;19121;52.428;10.816;2023-12-07T11:30:32;20.20;41.40
32753;DHT22;19121;52.428;10.816;2023-12-07T11:32:58;20.20;41.30
32753;DHT22;19121;52.428;10.816;2023-12-07T11:35:24;20.20;41.40
32753;DHT22;19121;52.428;10.816;2023-12-07T11:38:08;20.20;41.30
32753;DHT22;19121;52.428;10.816;2023-12-07T11:40:35;20.20;41.30
32753;DHT22;19121;52.428;10.816;2023-12-07T11:43:01;20.20;41.30
32753;DHT22;19121;52.428;10.816;2023-12-07T11:45:39;20.20;41.30
32753;DHT22;19121;52.428;10.816;2023-12-07T11:48:07;20.20;41.30
32753;DHT22;19121;52.428;10.816;2023-12-07T11:50:32;20.20;41.30
32753;DHT22;19121;52.428;10.816;2023-12-07T11:52:58;20.20;41.30
32753;DHT22;19121;52.428;10.816;2023-12-07T11:55:24;20.20;41.30
32753;DHT22;19121;52.428;10.816;2023-12-07T11:57:49;20.20;41.40
32753;DHT22;19121;52.428;10.816;2023-12-07T12:00:15;20.30;41.50
32753;DHT22;19121;52.428;10.816;2023-12-07T12:02:41;20.20;41.50
32753;DHT22;19121;52.428;10.816;2023-12-07T12:05:07;20.20;41.50
32753;DHT22;19121;52.428;10.816;2023-12-07T12:07:34;20.20;41.50
32753;DHT22;19121;52.428;10.816;2023-12-07T12:10:02;20.20;41.50
32753;DHT22;19121;52.428;10.816;2023-12-07T12:12:29;20.20;41.40
32753;DHT22;19121;52.428;10.816;2023-12-07T12:14:54;20.30;41.40
32753;DHT22;19121;52.428;10.816;2023-12-07T12:17:20;20.20;41.30
32753;DHT22;19121;52.428;10.816;2023-12-07T12:19:46;20.20;41.30
32753;DHT22;19121;52.428;10.816;2023-12-07T12:22:11;20.30;41.30
32753;DHT22;19121;52.428;10.816;2023-12-07T12:24:37;20.30;41.40
32753;DHT22;19121;52.428;10.816;2023-12-07T12:27:05;20.30;41.30
32753;DHT22;19121;52.428;10.816;2023-12-07T12:29:32;20.20;41.30
32753;DHT22;19121;52.428;10.816;2023-12-07T12:31:58;20.30;41.40
32753;DHT22;19121;52.428;10.816;2023-12-07T12:34:23;20.20;41.30
32753;DHT22;19121;52.428;10.816;2023-12-07T12:36:49;20.20;41.40
32753;DHT22;19121;52.428;10.816;2023-12-07T12:39:15;20.20;41.50
32753;DHT22;19121;52.428;10.816;2023-12-07T12:41:41;20.20;41.50
32753;DHT22;19121;52.428;10.816;2023-12-07T12:44:07;20.20;41.40
32753;DHT22;19121;52.428;10.816;2023-12-07T12:46:33;20.20;41.30
32753;DHT22;19121;52.428;10.816;2023-12-07T12:49:00;20.30;41.30
32753;DHT22;19121;52.428;10.816;2023-12-07T12:51:27;20.20;41.20
32753;DHT22;19121;52.428;10.816;2023-12-07T12:53:53;20.30;41.20
32753;DHT22;19121;52.428;10.816;2023-12-07T12:56:19;20.30;41.20
32753;DHT22;19121;52.428;10.816;2023-12-07T12:58:51;20.30;41.20
32753;DHT22;19121;52.428;10.816;2023-12-07T13:01:17;20.30;41.20
32753;DHT22;19121;52.428;10.816;2023-12-07T13:03:46;20.30;41.20
32753;DHT22;19121;52.428;10.816;2023-12-07T13:06:12;20.30;41.20
32753;DHT22;19121;52.428;10.816;2023-12-07T13:08:46;20.30;41.20
32753;DHT22;19121;52.428;10.816;2023-12-07T13:11:18;20.30;41.20
32753;DHT22;19121;52.428;10.816;2023-12-07T13:13:44;20.30;41.10
32753;DHT22;19121;52.428;10.816;2023-12-07T13:16:10;20.30;41.10
32753;DHT22;19121;52.428;10.816;2023-12-07T13:18:37;20.30;41.10
32753;DHT22;19121;52.428;10.816;2023-12-07T13:21:02;20.30;41.10
32753;DHT22;19121;52.428;10.816;2023-12-07T13:23:28;20.30;41.10
32753;DHT22;19121;52.428;10.816;2023-12-07T13:25:54;20.30;41.10
32753;DHT22;19121;52.428;10.816;2023-12-07T13:28:19;20.30;41.10
32753;DHT22;19121;52.428;10.816;2023-12-07T13:30:45;20.30;41.10
32753;DHT22;19121;52.428;10.816;2023-12-07T13:33:10;20.30;41.20
32753;DHT22;19121;52.428;10.816;2023-12-07T13:35:36;20.30;41.10
32753;DHT22;19121;52.428;10.816;2023-12-07T13:38:01;20.30;41.20
32753;DHT22;19121;52.428;10.816;2023-12-07T13:40:27;20.40;41.20
32753;DHT22;19121;52.428;10.816;2023-12-07T13:42:52;20.30;41.20
32753;DHT22;19121;52.428;10.816;2023-12-07T13:45:18;20.30;41.10
32753;DHT22;19121;52.428;10.816;2023-12-07T13:47:44;20.30;41.20
32753;DHT22;19121;52.428;10.816;2023-12-07T13:50:10;20.30;41.20
32753;DHT22;19121;52.428;10.816;2023-12-07T13:52:38;20.30;41.20
32753;DHT22;19121;52.428;10.816;2023-12-07T13:55:03;20.30;41.20
32753;DHT22;19121;52.428;10.816;2023-12-07T13:57:29;20.30;41.30
32753;DHT22;19121;52.428;10.816;2023-12-07T13:59:55;20.30;41.30
32753;DHT22;19121;52.428;10.816;2023-12-07T14:02:20;20.30;41.60
32753;DHT22;19121;52.428;10.816;2023-12-07T14:04:46;20.30;41.30
32753;DHT22;19121;52.428;10.816;2023-12-07T14:07:15;20.40;41.30
32753;DHT22;19121;52.428;10.816;2023-12-07T14:09:42;20.30;41.30
32753;DHT22;19121;52.428;10.816;2023-12-07T14:12:08;20.30;41.30
32753;DHT22;19121;52.428;10.816;2023-12-07T14:14:34;20.30;41.30
32753;DHT22;19121;52.428;10.816;2023-12-07T14:17:00;20.40;41.40
32753;DHT22;19121;52.428;10.816;2023-12-07T14:19:25;20.30;41.30
32753;DHT22;19121;52.428;10.816;2023-12-07T14:21:51;20.30;41.30
32753;DHT22;19121;52.428;10.816;2023-12-07T14:24:16;20.30;41.40
32753;DHT22;19121;52.428;10.816;2023-12-07T14:26:43;20.30;41.40
32753;DHT22;19121;52.428;10.816;2023-12-07T14:29:09;20.30;41.40
32753;DHT22;19121;52.428;10.816;2023-12-07T14:31:42;20.30;41.40
32753;DHT22;19121;52.428;10.816;2023-12-07T14:34:08;20.30;42.00
32753;DHT22;19121;52.428;10.816;2023-12-07T14:36:33;20.30;41.40
32753;DHT22;19121;52.428;10.816;2023-12-07T14:38:59;20.30;41.40
32753;DHT22;19121;52.428;10.816;2023-12-07T14:41:24;20.30;41.30
32753;DHT22;19121;52.428;10.816;2023-12-07T14:43:50;20.30;41.40
32753;DHT22;19121;52.428;10.816;2023-12-07T14:46:15;20.40;41.40
32753;DHT22;19121;52.428;10.816;2023-12-07T14:48:41;20.40;41.30
32753;DHT22;19121;52.428;10.816;2023-12-07T14:51:06;20.30;41.30
32753;DHT22;19121;52.428;10.816;2023-12-07T14:53:32;20.40;41.40
32753;DHT22;19121;52.428;10.816;2023-12-07T14:55:59;20.30;41.30
32753;DHT22;19121;52.428;10.816;2023-12-07T14:58:24;20.30;41.30
32753;DHT22;19121;52.428;10.816;2023-12-07T15:00:50;20.30;41.30
32753;DHT22;19121;52.428;10.816;2023-12-07T15:03:16;20.40;41.40
32753;DHT22;19121;52.428;10.816;2023-12-07T15:05:43;20.30;41.30
32753;DHT22;19121;52.428;10.816;2023-12-07T15:08:09;20.40;41.40
32753;DHT22;19121;52.428;10.816;2023-12-07T15:10:35;20.40;41.40
32753;DHT22;19121;52.428;10.816;2023-12-07T15:13:00;20.40;41.40
32753;DHT22;19121;52.428;10.816;2023-12-07T15:15:27;20.40;41.40
32753;DHT22;19121;52.428;10.816;2023-12-07T15:17:52;20.40;41.40
32753;DHT22;19121;52.428;10.816;2023-12-07T15:20:18;20.40;41.40
32753;DHT22;19121;52.428;10.816;2023-12-07T15:22:43;20.40;41.30